sensor_id;sensor_type;location;lat;lon;timestamp;temperature;humidity
32640;DHT22;19049;52.524;11.468;2022-07-01T00:02:21;23.60;67.90
32640;DHT22;19049;52.524;11.468;2022-07-01T00:04:47;23.60;68.00
32640;DHT22;19049;52.524;11.468;2022-07-01T00:07:13;23.60;67.80
32640;DHT22;19049;52.524;11.468;2022-07-01T00:09:39;23.60;67.70
32640;DHT22;19049;52.524;11.468;2022-07-01T00:12:05;23.60;67.80
32640;DHT22;19049;52.524;11.468;2022-07-01T00:14:34;23.60;68.40
32640;DHT22;19049;52.524;11.468;2022-07-01T00:16:59;23.60;69.00
32640;DHT22;19049;52.524;11.468;2022-07-01T00:19:25;23.60;68.70
32640;DHT22;19049;52.524;11.468;2022-07-01T00:21:51;23.60;68.80
32640;DHT22;19049;52.524;11.468;2022-07-01T00:24:16;23.60;68.80
32640;DHT22;19049;52.524;11.468;2022-07-01T00:26:42;23.60;68.90
32640;DHT22;19049;52.524;11.468;2022-07-01T00:29:08;23.60;69.10
32640;DHT22;19049;52.524;11.468;2022-07-01T00:31:33;23.50;69.10
32640;DHT22;19049;52.524;11.468;2022-07-01T00:33:59;23.50;69.60
32640;DHT22;19049;52.524;11.468;2022-07-01T00:36:25;23.40;69.60
32640;DHT22;19049;52.524;11.468;2022-07-01T00:38:53;23.40;69.70
32640;DHT22;19049;52.524;11.468;2022-07-01T00:41:18;23.40;70.20
32640;DHT22;19049;52.524;11.468;2022-07-01T00:43:44;23.40;70.30
32640;DHT22;19049;52.524;11.468;2022-07-01T00:46:09;23.40;70.30
32640;DHT22;19049;52.524;11.468;2022-07-01T00:48:36;23.40;70.50
32640;DHT22;19049;52.524;11.468;2022-07-01T00:51:03;23.30;70.90
32640;DHT22;19049;52.524;11.468;2022-07-01T00:53:28;23.30;71.00
32640;DHT22;19049;52.524;11.468;2022-07-01T00:55:55;23.30;71.20
32640;DHT22;19049;52.524;11.468;2022-07-01T00:58:21;23.30;71.30
32640;DHT22;19049;52.524;11.468;2022-07-01T01:00:47;23.30;71.30
32640;DHT22;19049;52.524;11.468;2022-07-01T01:03:12;23.30;71.30
32640;DHT22;19049;52.524;11.468;2022-07-01T01:05:40;23.30;71.30
32640;DHT22;19049;52.524;11.468;2022-07-01T01:08:08;23.20;71.80
32640;DHT22;19049;52.524;11.468;2022-07-01T01:10:35;23.30;72.10
32640;DHT22;19049;52.524;11.468;2022-07-01T01:13:03;23.20;72.00
32640;DHT22;19049;52.524;11.468;2022-07-01T01:15:30;23.20;72.10
32640;DHT22;19049;52.524;11.468;2022-07-01T01:17:56;23.20;72.80
32640;DHT22;19049;52.524;11.468;2022-07-01T01:20:22;23.20;72.10
32640;DHT22;19049;52.524;11.468;2022-07-01T01:22:48;23.10;72.20
32640;DHT22;19049;52.524;11.468;2022-07-01T01:25:14;23.10;72.30
32640;DHT22;19049;52.524;11.468;2022-07-01T01:27:40;23.10;72.40
32640;DHT22;19049;52.524;11.468;2022-07-01T01:30:07;23.10;72.60
32640;DHT22;19049;52.524;11.468;2022-07-01T01:32:33;23.10;73.00
32640;DHT22;19049;52.524;11.468;2022-07-01T01:34:59;23.00;72.70
32640;DHT22;19049;52.524;11.468;2022-07-01T01:37:25;23.00;73.50
32640;DHT22;19049;52.524;11.468;2022-07-01T01:39:51;23.00;74.70
32640;DHT22;19049;52.524;11.468;2022-07-01T01:42:17;22.90;76.50
32640;DHT22;19049;52.524;11.468;2022-07-01T01:44:43;22.90;75.90
32640;DHT22;19049;52.524;11.468;2022-07-01T01:47:08;22.90;75.10
32640;DHT22;19049;52.524;11.468;2022-07-01T01:49:36;22.80;75.40
32640;DHT22;19049;52.524;11.468;2022-07-01T01:52:02;22.80;76.00
32640;DHT22;19049;52.524;11.468;2022-07-01T01:54:28;22.80;77.00
32640;DHT22;19049;52.524;11.468;2022-07-01T01:56:56;22.80;77.90
32640;DHT22;19049;52.524;11.468;2022-07-01T01:59:22;22.80;77.20
32640;DHT22;19049;52.524;11.468;2022-07-01T02:01:47;22.80;76.60
32640;DHT22;19049;52.524;11.468;2022-07-01T02:04:13;22.80;76.80
32640;DHT22;19049;52.524;11.468;2022-07-01T02:06:39;22.80;77.20
32640;DHT22;19049;52.524;11.468;2022-07-01T02:09:06;22.80;76.40
32640;DHT22;19049;52.524;11.468;2022-07-01T02:11:32;22.80;76.60
32640;DHT22;19049;52.524;11.468;2022-07-01T02:13:58;22.90;76.50
32640;DHT22;19049;52.524;11.468;2022-07-01T02:16:24;22.80;76.20
32640;DHT22;19049;52.524;11.468;2022-07-01T02:18:49;22.80;76.20
32640;DHT22;19049;52.524;11.468;2022-07-01T02:21:15;22.80;76.10
32640;DHT22;19049;52.524;11.468;2022-07-01T02:23:43;22.80;76.10
32640;DHT22;19049;52.524;11.468;2022-07-01T02:26:08;22.80;76.10
32640;DHT22;19049;52.524;11.468;2022-07-01T02:28:34;22.80;75.90
32640;DHT22;19049;52.524;11.468;2022-07-01T02:30:59;22.80;76.20
32640;DHT22;19049;52.524;11.468;2022-07-01T02:33:25;22.80;76.50
32640;DHT22;19049;52.524;11.468;2022-07-01T02:35:56;22.80;76.90
32640;DHT22;19049;52.524;11.468;2022-07-01T02:38:21;22.80;77.20
32640;DHT22;19049;52.524;11.468;2022-07-01T02:40:47;22.80;77.90
32640;DHT22;19049;52.524;11.468;2022-07-01T02:43:13;22.80;78.50
32640;DHT22;19049;52.524;11.468;2022-07-01T02:45:39;22.80;79.10
32640;DHT22;19049;52.524;11.468;2022-07-01T02:48:05;22.80;79.30
32640;DHT22;19049;52.524;11.468;2022-07-01T02:50:31;22.80;79.30
32640;DHT22;19049;52.524;11.468;2022-07-01T02:55:09;22.60;83.80
32640;DHT22;19049;52.524;11.468;2022-07-01T02:57:35;22.20;85.40
32640;DHT22;19049;52.524;11.468;2022-07-01T03:00:02;21.90;86.60
32640;DHT22;19049;52.524;11.468;2022-07-01T03:02:28;21.70;87.30
32640;DHT22;19049;52.524;11.468;2022-07-01T03:04:53;21.40;89.20
32640;DHT22;19049;52.524;11.468;2022-07-01T03:07:20;21.20;90.40
32640;DHT22;19049;52.524;11.468;2022-07-01T03:09:47;21.00;91.20
32640;DHT22;19049;52.524;11.468;2022-07-01T03:12:13;20.80;92.20
32640;DHT22;19049;52.524;11.468;2022-07-01T03:14:59;20.70;92.40
32640;DHT22;19049;52.524;11.468;2022-07-01T03:17:26;20.60;93.00
32640;DHT22;19049;52.524;11.468;2022-07-01T03:19:53;20.50;93.40
32640;DHT22;19049;52.524;11.468;2022-07-01T03:22:23;20.40;93.70
32640;DHT22;19049;52.524;11.468;2022-07-01T03:24:50;20.40;93.90
32640;DHT22;19049;52.524;11.468;2022-07-01T03:27:17;20.30;94.20
32640;DHT22;19049;52.524;11.468;2022-07-01T03:29:43;20.30;94.50
32640;DHT22;19049;52.524;11.468;2022-07-01T03:32:10;20.30;94.80
32640;DHT22;19049;52.524;11.468;2022-07-01T03:34:41;20.30;95.00
32640;DHT22;19049;52.524;11.468;2022-07-01T03:37:09;20.20;95.20
32640;DHT22;19049;52.524;11.468;2022-07-01T03:39:36;20.20;95.70
32640;DHT22;19049;52.524;11.468;2022-07-01T03:42:03;20.20;95.70
32640;DHT22;19049;52.524;11.468;2022-07-01T03:44:29;20.20;95.60
32640;DHT22;19049;52.524;11.468;2022-07-01T03:46:55;20.20;96.00
32640;DHT22;19049;52.524;11.468;2022-07-01T03:49:21;20.20;95.80
32640;DHT22;19049;52.524;11.468;2022-07-01T03:51:48;20.20;95.90
32640;DHT22;19049;52.524;11.468;2022-07-01T03:54:14;20.10;96.20
32640;DHT22;19049;52.524;11.468;2022-07-01T03:56:55;20.20;96.00
32640;DHT22;19049;52.524;11.468;2022-07-01T03:59:21;20.20;96.20
32640;DHT22;19049;52.524;11.468;2022-07-01T04:01:47;20.20;96.10
32640;DHT22;19049;52.524;11.468;2022-07-01T04:04:12;20.20;96.20
32640;DHT22;19049;52.524;11.468;2022-07-01T04:06:38;20.20;96.10
32640;DHT22;19049;52.524;11.468;2022-07-01T04:09:04;20.10;96.20
32640;DHT22;19049;52.524;11.468;2022-07-01T04:11:30;20.10;96.50
32640;DHT22;19049;52.524;11.468;2022-07-01T04:13:56;20.10;96.60
32640;DHT22;19049;52.524;11.468;2022-07-01T04:16:22;20.20;96.10
32640;DHT22;19049;52.524;11.468;2022-07-01T04:18:49;20.20;96.00
32640;DHT22;19049;52.524;11.468;2022-07-01T04:21:15;20.20;96.00
32640;DHT22;19049;52.524;11.468;2022-07-01T04:23:59;20.20;95.90
32640;DHT22;19049;52.524;11.468;2022-07-01T04:26:25;20.10;95.80
32640;DHT22;19049;52.524;11.468;2022-07-01T04:28:55;20.20;95.90
32640;DHT22;19049;52.524;11.468;2022-07-01T04:31:21;20.20;95.90
32640;DHT22;19049;52.524;11.468;2022-07-01T04:33:47;20.10;96.00
32640;DHT22;19049;52.524;11.468;2022-07-01T04:36:14;20.20;96.10
32640;DHT22;19049;52.524;11.468;2022-07-01T04:38:40;20.20;96.00
32640;DHT22;19049;52.524;11.468;2022-07-01T04:41:06;20.20;96.00
32640;DHT22;19049;52.524;11.468;2022-07-01T04:44:01;20.20;96.00
32640;DHT22;19049;52.524;11.468;2022-07-01T04:46:27;20.10;96.00
32640;DHT22;19049;52.524;11.468;2022-07-01T04:48:53;20.20;96.00
32640;DHT22;19049;52.524;11.468;2022-07-01T04:51:19;20.10;96.00
32640;DHT22;19049;52.524;11.468;2022-07-01T04:53:45;20.10;96.00
32640;DHT22;19049;52.524;11.468;2022-07-01T04:56:11;20.00;96.00
32640;DHT22;19049;52.524;11.468;2022-07-01T04:58:37;20.00;95.90
32640;DHT22;19049;52.524;11.468;2022-07-01T05:01:02;19.90;95.80
32640;DHT22;19049;52.524;11.468;2022-07-01T05:03:28;19.80;95.60
32640;DHT22;19049;52.524;11.468;2022-07-01T05:05:54;19.70;95.60
32640;DHT22;19049;52.524;11.468;2022-07-01T05:08:19;19.70;95.50
32640;DHT22;19049;52.524;11.468;2022-07-01T05:10:45;19.50;95.60
32640;DHT22;19049;52.524;11.468;2022-07-01T05:13:11;19.40;95.60
32640;DHT22;19049;52.524;11.468;2022-07-01T05:15:36;19.40;95.70
32640;DHT22;19049;52.524;11.468;2022-07-01T05:18:02;19.30;96.00
32640;DHT22;19049;52.524;11.468;2022-07-01T05:20:47;19.30;96.10
32640;DHT22;19049;52.524;11.468;2022-07-01T05:23:31;19.30;96.20
32640;DHT22;19049;52.524;11.468;2022-07-01T05:25:57;19.20;96.30
32640;DHT22;19049;52.524;11.468;2022-07-01T05:28:22;19.20;96.50
32640;DHT22;19049;52.524;11.468;2022-07-01T05:30:48;19.20;96.60
32640;DHT22;19049;52.524;11.468;2022-07-01T05:33:14;19.10;96.50
32640;DHT22;19049;52.524;11.468;2022-07-01T05:35:39;19.10;96.60
32640;DHT22;19049;52.524;11.468;2022-07-01T05:38:05;19.20;96.60
32640;DHT22;19049;52.524;11.468;2022-07-01T05:40:30;19.10;96.50
32640;DHT22;19049;52.524;11.468;2022-07-01T05:42:56;19.10;96.30
32640;DHT22;19049;52.524;11.468;2022-07-01T05:45:22;19.10;96.20
32640;DHT22;19049;52.524;11.468;2022-07-01T05:47:48;19.10;96.20
32640;DHT22;19049;52.524;11.468;2022-07-01T05:50:13;19.00;96.10
32640;DHT22;19049;52.524;11.468;2022-07-01T05:52:39;19.00;96.20
32640;DHT22;19049;52.524;11.468;2022-07-01T05:55:05;19.00;96.20
32640;DHT22;19049;52.524;11.468;2022-07-01T05:57:31;18.90;96.20
32640;DHT22;19049;52.524;11.468;2022-07-01T06:00:00;18.80;96.20
32640;DHT22;19049;52.524;11.468;2022-07-01T06:02:25;18.80;96.30
32640;DHT22;19049;52.524;11.468;2022-07-01T06:04:52;18.80;96.20
32640;DHT22;19049;52.524;11.468;2022-07-01T06:07:18;18.80;96.30
32640;DHT22;19049;52.524;11.468;2022-07-01T06:09:43;18.70;96.40
32640;DHT22;19049;52.524;11.468;2022-07-01T06:12:09;18.70;96.50
32640;DHT22;19049;52.524;11.468;2022-07-01T06:14:34;18.70;96.60
32640;DHT22;19049;52.524;11.468;2022-07-01T06:17:03;18.60;96.70
32640;DHT22;19049;52.524;11.468;2022-07-01T06:19:28;18.70;96.80
32640;DHT22;19049;52.524;11.468;2022-07-01T06:21:54;18.70;96.80
32640;DHT22;19049;52.524;11.468;2022-07-01T06:24:20;18.70;96.80
32640;DHT22;19049;52.524;11.468;2022-07-01T06:26:46;18.70;97.10
32640;DHT22;19049;52.524;11.468;2022-07-01T06:29:12;18.70;96.90
32640;DHT22;19049;52.524;11.468;2022-07-01T06:31:38;18.70;96.80
32640;DHT22;19049;52.524;11.468;2022-07-01T06:34:04;18.70;96.80
32640;DHT22;19049;52.524;11.468;2022-07-01T06:36:30;18.70;96.90
32640;DHT22;19049;52.524;11.468;2022-07-01T06:38:56;18.70;96.90
32640;DHT22;19049;52.524;11.468;2022-07-01T06:41:22;18.70;97.00
32640;DHT22;19049;52.524;11.468;2022-07-01T06:44:01;18.80;97.10
32640;DHT22;19049;52.524;11.468;2022-07-01T06:46:29;18.80;97.00
32640;DHT22;19049;52.524;11.468;2022-07-01T06:48:55;18.80;97.00
32640;DHT22;19049;52.524;11.468;2022-07-01T06:51:21;18.90;96.90
32640;DHT22;19049;52.524;11.468;2022-07-01T06:53:49;18.90;96.90
32640;DHT22;19049;52.524;11.468;2022-07-01T06:56:16;18.90;96.90
32640;DHT22;19049;52.524;11.468;2022-07-01T06:58:42;19.00;96.90
32640;DHT22;19049;52.524;11.468;2022-07-01T07:01:08;19.00;96.70
32640;DHT22;19049;52.524;11.468;2022-07-01T07:03:34;19.00;96.60
32640;DHT22;19049;52.524;11.468;2022-07-01T07:06:01;19.00;96.50
32640;DHT22;19049;52.524;11.468;2022-07-01T07:08:32;19.00;96.40
32640;DHT22;19049;52.524;11.468;2022-07-01T07:10:59;19.00;96.20
32640;DHT22;19049;52.524;11.468;2022-07-01T07:13:32;19.00;96.00
32640;DHT22;19049;52.524;11.468;2022-07-01T07:15:58;19.00;96.10
32640;DHT22;19049;52.524;11.468;2022-07-01T07:18:24;18.90;96.00
32640;DHT22;19049;52.524;11.468;2022-07-01T07:20:56;18.90;96.00
32640;DHT22;19049;52.524;11.468;2022-07-01T07:23:22;18.80;95.90
32640;DHT22;19049;52.524;11.468;2022-07-01T07:25:48;18.80;96.00
32640;DHT22;19049;52.524;11.468;2022-07-01T07:28:13;18.70;96.00
32640;DHT22;19049;52.524;11.468;2022-07-01T07:30:39;18.70;96.00
32640;DHT22;19049;52.524;11.468;2022-07-01T07:33:07;18.70;96.00
32640;DHT22;19049;52.524;11.468;2022-07-01T07:35:33;18.70;96.10
32640;DHT22;19049;52.524;11.468;2022-07-01T07:37:59;18.70;96.20
32640;DHT22;19049;52.524;11.468;2022-07-01T07:40:25;18.70;96.10
32640;DHT22;19049;52.524;11.468;2022-07-01T07:42:56;18.70;96.20
32640;DHT22;19049;52.524;11.468;2022-07-01T07:45:24;18.70;96.30
32640;DHT22;19049;52.524;11.468;2022-07-01T07:47:50;18.70;96.30
32640;DHT22;19049;52.524;11.468;2022-07-01T07:50:16;18.70;96.30
32640;DHT22;19049;52.524;11.468;2022-07-01T07:52:44;18.70;96.10
32640;DHT22;19049;52.524;11.468;2022-07-01T07:55:13;18.70;96.10
32640;DHT22;19049;52.524;11.468;2022-07-01T07:57:40;18.60;96.10
32640;DHT22;19049;52.524;11.468;2022-07-01T08:00:08;18.60;96.10
32640;DHT22;19049;52.524;11.468;2022-07-01T08:02:38;18.60;96.10
32640;DHT22;19049;52.524;11.468;2022-07-01T08:05:04;18.50;95.90
32640;DHT22;19049;52.524;11.468;2022-07-01T08:07:38;18.60;96.00
32640;DHT22;19049;52.524;11.468;2022-07-01T08:10:05;18.40;95.80
32640;DHT22;19049;52.524;11.468;2022-07-01T08:12:31;18.40;96.00
32640;DHT22;19049;52.524;11.468;2022-07-01T08:15:00;18.30;95.90
32640;DHT22;19049;52.524;11.468;2022-07-01T08:17:29;18.20;95.90
32640;DHT22;19049;52.524;11.468;2022-07-01T08:20:00;18.30;96.30
32640;DHT22;19049;52.524;11.468;2022-07-01T08:22:33;18.20;96.00
32640;DHT22;19049;52.524;11.468;2022-07-01T08:25:02;18.20;96.00
32640;DHT22;19049;52.524;11.468;2022-07-01T08:27:29;18.10;96.10
32640;DHT22;19049;52.524;11.468;2022-07-01T08:29:55;18.00;96.20
32640;DHT22;19049;52.524;11.468;2022-07-01T08:32:20;18.00;96.30
32640;DHT22;19049;52.524;11.468;2022-07-01T08:34:47;18.00;96.50
32640;DHT22;19049;52.524;11.468;2022-07-01T08:37:13;18.00;96.60
32640;DHT22;19049;52.524;11.468;2022-07-01T08:39:38;18.00;96.70
32640;DHT22;19049;52.524;11.468;2022-07-01T08:42:06;17.90;96.70
32640;DHT22;19049;52.524;11.468;2022-07-01T08:44:33;17.90;96.80
32640;DHT22;19049;52.524;11.468;2022-07-01T08:46:59;17.80;96.80
32640;DHT22;19049;52.524;11.468;2022-07-01T08:49:25;17.80;97.00
32640;DHT22;19049;52.524;11.468;2022-07-01T08:51:51;17.70;97.10
32640;DHT22;19049;52.524;11.468;2022-07-01T08:54:19;17.70;97.20
32640;DHT22;19049;52.524;11.468;2022-07-01T08:56:47;17.70;97.30
32640;DHT22;19049;52.524;11.468;2022-07-01T08:59:23;17.70;97.30
32640;DHT22;19049;52.524;11.468;2022-07-01T09:01:58;17.70;97.40
32640;DHT22;19049;52.524;11.468;2022-07-01T09:04:24;17.70;97.40
32640;DHT22;19049;52.524;11.468;2022-07-01T09:07:04;17.70;97.40
32640;DHT22;19049;52.524;11.468;2022-07-01T09:09:34;17.70;97.50
32640;DHT22;19049;52.524;11.468;2022-07-01T09:12:00;17.70;97.40
32640;DHT22;19049;52.524;11.468;2022-07-01T09:14:33;17.70;97.30
32640;DHT22;19049;52.524;11.468;2022-07-01T09:17:03;17.70;97.20
32640;DHT22;19049;52.524;11.468;2022-07-01T09:19:35;17.70;97.20
32640;DHT22;19049;52.524;11.468;2022-07-01T09:22:02;17.70;97.50
32640;DHT22;19049;52.524;11.468;2022-07-01T09:24:36;17.60;97.30
32640;DHT22;19049;52.524;11.468;2022-07-01T09:27:07;17.60;97.40
32640;DHT22;19049;52.524;11.468;2022-07-01T09:29:48;17.60;97.40
32640;DHT22;19049;52.524;11.468;2022-07-01T09:32:18;17.60;97.50
32640;DHT22;19049;52.524;11.468;2022-07-01T09:34:46;17.60;97.60
32640;DHT22;19049;52.524;11.468;2022-07-01T09:37:17;17.60;97.60
32640;DHT22;19049;52.524;11.468;2022-07-01T09:39:50;17.60;97.70
32640;DHT22;19049;52.524;11.468;2022-07-01T09:42:18;17.60;97.70
32640;DHT22;19049;52.524;11.468;2022-07-01T09:44:58;17.60;97.60
32640;DHT22;19049;52.524;11.468;2022-07-01T09:47:28;17.70;97.60
32640;DHT22;19049;52.524;11.468;2022-07-01T09:49:54;17.60;97.50
32640;DHT22;19049;52.524;11.468;2022-07-01T09:52:21;17.60;97.60
32640;DHT22;19049;52.524;11.468;2022-07-01T09:54:48;17.60;97.70
32640;DHT22;19049;52.524;11.468;2022-07-01T09:57:15;17.70;97.90
32640;DHT22;19049;52.524;11.468;2022-07-01T09:59:40;17.70;97.90
32640;DHT22;19049;52.524;11.468;2022-07-01T10:02:10;17.70;98.00
32640;DHT22;19049;52.524;11.468;2022-07-01T10:04:46;17.70;98.00
32640;DHT22;19049;52.524;11.468;2022-07-01T10:12:45;17.80;98.00
32640;DHT22;19049;52.524;11.468;2022-07-01T10:15:16;17.90;98.00
32640;DHT22;19049;52.524;11.468;2022-07-01T10:17:45;17.90;97.90
32640;DHT22;19049;52.524;11.468;2022-07-01T10:20:15;17.90;97.90
32640;DHT22;19049;52.524;11.468;2022-07-01T10:22:42;17.90;97.80
32640;DHT22;19049;52.524;11.468;2022-07-01T10:28:21;17.90;97.70
32640;DHT22;19049;52.524;11.468;2022-07-01T10:31:06;17.90;97.70
32640;DHT22;19049;52.524;11.468;2022-07-01T10:36:29;17.80;97.50
32640;DHT22;19049;52.524;11.468;2022-07-01T10:42:16;17.80;97.70
32640;DHT22;19049;52.524;11.468;2022-07-01T10:44:24;17.80;97.80
32640;DHT22;19049;52.524;11.468;2022-07-01T10:47:04;17.90;98.00
32640;DHT22;19049;52.524;11.468;2022-07-01T10:52:13;17.90;98.00
32640;DHT22;19049;52.524;11.468;2022-07-01T11:02:37;18.10;97.80
32640;DHT22;19049;52.524;11.468;2022-07-01T11:05:09;18.10;98.20
32640;DHT22;19049;52.524;11.468;2022-07-01T11:07:37;18.20;98.40
32640;DHT22;19049;52.524;11.468;2022-07-01T11:10:06;18.30;98.80
32640;DHT22;19049;52.524;11.468;2022-07-01T11:12:33;18.50;99.00
32640;DHT22;19049;52.524;11.468;2022-07-01T11:15:00;18.60;99.00
32640;DHT22;19049;52.524;11.468;2022-07-01T11:17:31;18.60;98.60
32640;DHT22;19049;52.524;11.468;2022-07-01T11:19:58;18.70;98.10
32640;DHT22;19049;52.524;11.468;2022-07-01T11:22:26;18.70;97.60
32640;DHT22;19049;52.524;11.468;2022-07-01T11:24:57;18.70;97.40
32640;DHT22;19049;52.524;11.468;2022-07-01T11:27:23;18.60;97.20
32640;DHT22;19049;52.524;11.468;2022-07-01T11:29:54;18.60;97.20
32640;DHT22;19049;52.524;11.468;2022-07-01T11:32:43;18.50;97.20
32640;DHT22;19049;52.524;11.468;2022-07-01T11:35:14;18.40;97.00
32640;DHT22;19049;52.524;11.468;2022-07-01T11:38:12;18.20;97.00
32640;DHT22;19049;52.524;11.468;2022-07-01T11:41:00;18.10;97.10
32640;DHT22;19049;52.524;11.468;2022-07-01T11:43:35;18.00;97.30
32640;DHT22;19049;52.524;11.468;2022-07-01T11:46:03;17.90;97.40
32640;DHT22;19049;52.524;11.468;2022-07-01T11:48:33;17.90;97.50
32640;DHT22;19049;52.524;11.468;2022-07-01T11:51:00;17.80;97.80
32640;DHT22;19049;52.524;11.468;2022-07-01T11:53:26;17.80;98.00
32640;DHT22;19049;52.524;11.468;2022-07-01T11:55:53;17.80;98.60
32640;DHT22;19049;52.524;11.468;2022-07-01T11:58:18;17.70;98.30
32640;DHT22;19049;52.524;11.468;2022-07-01T12:00:44;17.80;98.60
32640;DHT22;19049;52.524;11.468;2022-07-01T12:03:10;17.80;99.00
32640;DHT22;19049;52.524;11.468;2022-07-01T12:05:36;17.80;98.80
32640;DHT22;19049;52.524;11.468;2022-07-01T12:08:03;17.90;99.00
32640;DHT22;19049;52.524;11.468;2022-07-01T12:10:29;18.00;99.10
32640;DHT22;19049;52.524;11.468;2022-07-01T12:12:55;18.10;99.20
32640;DHT22;19049;52.524;11.468;2022-07-01T12:15:21;18.20;99.20
32640;DHT22;19049;52.524;11.468;2022-07-01T12:17:48;18.20;99.10
32640;DHT22;19049;52.524;11.468;2022-07-01T12:20:31;18.30;98.70
32640;DHT22;19049;52.524;11.468;2022-07-01T12:23:13;18.40;97.80
32640;DHT22;19049;52.524;11.468;2022-07-01T12:25:39;18.50;97.80
32640;DHT22;19049;52.524;11.468;2022-07-01T12:28:05;18.50;98.40
32640;DHT22;19049;52.524;11.468;2022-07-01T12:30:31;18.60;98.50
32640;DHT22;19049;52.524;11.468;2022-07-01T12:33:10;18.70;98.60
32640;DHT22;19049;52.524;11.468;2022-07-01T12:35:40;18.80;98.50
32640;DHT22;19049;52.524;11.468;2022-07-01T12:38:15;19.00;98.50
32640;DHT22;19049;52.524;11.468;2022-07-01T12:40:41;19.20;98.20
32640;DHT22;19049;52.524;11.468;2022-07-01T12:43:28;19.40;97.60
32640;DHT22;19049;52.524;11.468;2022-07-01T12:45:56;19.50;95.80
32640;DHT22;19049;52.524;11.468;2022-07-01T12:48:21;19.60;96.70
32640;DHT22;19049;52.524;11.468;2022-07-01T12:50:47;19.70;96.50
32640;DHT22;19049;52.524;11.468;2022-07-01T12:53:20;19.70;95.80
32640;DHT22;19049;52.524;11.468;2022-07-01T12:55:55;19.60;94.80
32640;DHT22;19049;52.524;11.468;2022-07-01T12:58:23;19.50;94.20
32640;DHT22;19049;52.524;11.468;2022-07-01T13:00:54;19.50;95.00
32640;DHT22;19049;52.524;11.468;2022-07-01T13:03:22;19.30;95.30
32640;DHT22;19049;52.524;11.468;2022-07-01T13:05:49;19.30;95.00
32640;DHT22;19049;52.524;11.468;2022-07-01T13:08:16;19.30;95.60
32640;DHT22;19049;52.524;11.468;2022-07-01T13:14:55;19.30;95.60
32640;DHT22;19049;52.524;11.468;2022-07-01T13:17:28;19.20;95.30
32640;DHT22;19049;52.524;11.468;2022-07-01T13:20:02;19.20;95.50
32640;DHT22;19049;52.524;11.468;2022-07-01T13:22:27;19.30;96.00
32640;DHT22;19049;52.524;11.468;2022-07-01T13:24:53;19.30;95.40
32640;DHT22;19049;52.524;11.468;2022-07-01T13:27:19;19.40;95.00
32640;DHT22;19049;52.524;11.468;2022-07-01T13:33:33;19.60;94.30
32640;DHT22;19049;52.524;11.468;2022-07-01T13:36:07;19.70;94.20
32640;DHT22;19049;52.524;11.468;2022-07-01T13:38:36;19.90;93.70
32640;DHT22;19049;52.524;11.468;2022-07-01T13:41:12;20.00;94.00
32640;DHT22;19049;52.524;11.468;2022-07-01T13:43:49;20.10;94.10
32640;DHT22;19049;52.524;11.468;2022-07-01T13:46:16;20.20;93.50
32640;DHT22;19049;52.524;11.468;2022-07-01T13:48:42;20.30;93.40
32640;DHT22;19049;52.524;11.468;2022-07-01T13:51:08;20.40;93.00
32640;DHT22;19049;52.524;11.468;2022-07-01T13:53:34;20.50;93.40
32640;DHT22;19049;52.524;11.468;2022-07-01T13:56:04;20.60;93.20
32640;DHT22;19049;52.524;11.468;2022-07-01T13:58:32;20.70;92.80
32640;DHT22;19049;52.524;11.468;2022-07-01T14:00:58;20.70;92.30
32640;DHT22;19049;52.524;11.468;2022-07-01T14:03:26;20.80;91.60
32640;DHT22;19049;52.524;11.468;2022-07-01T14:05:56;20.80;90.70
32640;DHT22;19049;52.524;11.468;2022-07-01T14:08:24;20.80;90.80
32640;DHT22;19049;52.524;11.468;2022-07-01T14:10:53;20.90;90.70
32640;DHT22;19049;52.524;11.468;2022-07-01T14:13:19;20.80;91.00
32640;DHT22;19049;52.524;11.468;2022-07-01T14:15:47;20.80;91.00
32640;DHT22;19049;52.524;11.468;2022-07-01T14:18:13;20.80;91.40
32640;DHT22;19049;52.524;11.468;2022-07-01T14:20:41;20.80;90.50
32640;DHT22;19049;52.524;11.468;2022-07-01T14:23:07;20.70;90.80
32640;DHT22;19049;52.524;11.468;2022-07-01T14:25:36;20.70;90.70
32640;DHT22;19049;52.524;11.468;2022-07-01T14:28:04;20.60;90.80
32640;DHT22;19049;52.524;11.468;2022-07-01T14:30:29;20.60;90.10
32640;DHT22;19049;52.524;11.468;2022-07-01T14:32:55;20.60;90.80
32640;DHT22;19049;52.524;11.468;2022-07-01T14:35:21;20.50;91.00
32640;DHT22;19049;52.524;11.468;2022-07-01T14:37:47;20.40;90.60
32640;DHT22;19049;52.524;11.468;2022-07-01T14:40:12;20.40;90.40
32640;DHT22;19049;52.524;11.468;2022-07-01T14:42:38;20.30;90.60
32640;DHT22;19049;52.524;11.468;2022-07-01T14:45:06;20.30;90.40
32640;DHT22;19049;52.524;11.468;2022-07-01T14:47:32;20.20;90.40
32640;DHT22;19049;52.524;11.468;2022-07-01T14:49:58;20.10;90.50
32640;DHT22;19049;52.524;11.468;2022-07-01T14:52:24;20.00;90.40
32640;DHT22;19049;52.524;11.468;2022-07-01T14:54:51;20.00;90.90
32640;DHT22;19049;52.524;11.468;2022-07-01T14:57:16;20.00;91.00
32640;DHT22;19049;52.524;11.468;2022-07-01T14:59:42;19.90;91.30
32640;DHT22;19049;52.524;11.468;2022-07-01T15:02:08;19.90;91.60
32640;DHT22;19049;52.524;11.468;2022-07-01T15:04:33;19.90;91.90
32640;DHT22;19049;52.524;11.468;2022-07-01T15:07:00;19.80;92.00
32640;DHT22;19049;52.524;11.468;2022-07-01T15:09:26;19.90;92.20
32640;DHT22;19049;52.524;11.468;2022-07-01T15:11:52;19.80;92.40
32640;DHT22;19049;52.524;11.468;2022-07-01T15:14:18;19.80;92.40
32640;DHT22;19049;52.524;11.468;2022-07-01T15:16:44;19.80;91.40
32640;DHT22;19049;52.524;11.468;2022-07-01T15:19:12;19.80;91.90
32640;DHT22;19049;52.524;11.468;2022-07-01T15:21:37;19.80;92.50
32640;DHT22;19049;52.524;11.468;2022-07-01T15:24:04;19.80;92.50
32640;DHT22;19049;52.524;11.468;2022-07-01T15:26:30;19.80;92.30
32640;DHT22;19049;52.524;11.468;2022-07-01T15:28:55;19.80;91.60
32640;DHT22;19049;52.524;11.468;2022-07-01T15:31:21;19.80;91.80
32640;DHT22;19049;52.524;11.468;2022-07-01T15:33:48;19.80;91.60
32640;DHT22;19049;52.524;11.468;2022-07-01T15:36:13;19.80;91.90
32640;DHT22;19049;52.524;11.468;2022-07-01T15:38:40;19.80;91.20
32640;DHT22;19049;52.524;11.468;2022-07-01T15:41:06;19.70;91.10
32640;DHT22;19049;52.524;11.468;2022-07-01T15:43:32;19.70;91.10
32640;DHT22;19049;52.524;11.468;2022-07-01T15:45:59;19.70;91.50
32640;DHT22;19049;52.524;11.468;2022-07-01T15:48:25;19.70;91.20
32640;DHT22;19049;52.524;11.468;2022-07-01T15:50:53;19.70;91.20
32640;DHT22;19049;52.524;11.468;2022-07-01T15:53:19;19.70;90.90
32640;DHT22;19049;52.524;11.468;2022-07-01T15:55:48;19.70;91.60